Tiempo atmosférico en la estación meteorológica de Albarracín, Teruel (1130 m.)



Fecha
DESCASC
Temp. máxima en grados centígrados (hora)
DESCASC
Temp. mínima en grados centígrados (hora)
DESCASC
Temp. media en grados centígrados
DESCASC
Racha de viento máxima en m/sg (hora)
DESCASC
Velocidad máxima media en intervalos de 10 minutos(hora)
DESCASC
Precipitaciones diarias en mm
DESCASC
Precipitaciones de 00:00 a 06:00 en mm
DESCASC
Precipitaciones de 06:00 a 12:00 en mm
DESCASC
Precipitaciones de 12:00 a 18:00 en mm
DESCASC
Precipitaciones de 18:00 a 24:00 en mm
DESCASC
19-02-2019 14 (15:30) -2.3 (08:30) 5.9 7.22 (16:40) 4.17 (09:30) 0 0 0 0 0
18-02-2019 13.5 (14:50) -3.1 (04:30) 5.2 10 (14:20) 6.39 (14:20) 0 0 0 0 0
17-02-2019 14.7 (15:10) -3.5 (-00:0) 5.6 10.28 (14:40) 5.56 (13:50) 0 0 0 0 0
16-02-2019 14.3 (14:50) -3.2 (-00:0) 5.6 11.67 (12:20) 7.5 (12:40) 0 0 0 0 0
15-02-2019 16.3 (16:50) -4.6 (-00:0) 5.8 7.5 (16:20) 4.72 (16:20) 0 0 0 0 0
14-02-2019 14.5 (15:10) -4.8 (-00:0) 4.8 9.72 (15:20) 5.83 (15:00) 0 0 0 0 0
13-02-2019 16.1 (15:30) -3.2 (-00:0) 6.5 6.67 (06:00) 4.17 (09:20) 0 0 0 0 0
12-02-2019 13.6 (16:10) -3.5 (-00:0) 5.1 6.39 (19:20) 4.44 (19:10) 0 0 0 0 0
11-02-2019 8.3 (14:00) -0.6 (-00:0) 3.9 10.83 (11:20) 6.39 (11:00) 0.6 0.6 0 0 0
10-02-2019 10.6 (16:00) 2.7 (00:00) 6.7 11.39 (12:40) 5.83 (11:40) 0 0 0 0 0
09-02-2019 15.3 (15:20) -2.7 (-00:0) 6.3 6.39 (15:40) 3.89 (16:30) 0 0 0 0 0
08-02-2019 16.1 (14:20) -1.7 (-00:0) 7.2 8.89 (12:00) 5.56 (08:40) 0 0 0 0 0
07-02-2019 13.5 (15:10) -0.8 (-00:0) 6.3 7.22 (13:30) 4.17 (02:20) 0 0 0 0 0
06-02-2019 15 (17:00) -2 (08:20) 6.5 6.39 (06:10) 3.89 (06:00) 0 0 0 0 0
05-02-2019 12.4 (14:20) -2.1 (08:00) 5.1 9.72 (12:00) 6.11 (12:00) 0 0 0 0 0
04-02-2019 10.4 (14:50) -2.1 (-00:0) 4.1 12.5 (00:20) 8.33 (00:30) 0 0 0 0 0
03-02-2019 2.3 (16:10) -2.7 (-00:0) -0.2 18.61 (15:30) 10 (13:40) 0 0 0 0 0
02-02-2019 2.6 (13:30) -1.3 (-00:0) 0.6 18.61 (09:30) 10.56 (09:30) 0.6 0.6 0 0 0
01-02-2019 9.1 (00:00) 0.8 (00:00) 5 -- (--) -- (--) -- 0.8 1 1 --
31-01-2019 11.5 (13:10) 3.6 (00:00) 7.5 13.33 (12:40) 6.67 (12:50) 0.2 0 0 0 0.2
30-01-2019 7.2 (14:00) 1.1 (00:00) 4.1 11.11 (23:40) 6.67 (23:30) 0 0 0 0 0
29-01-2019 8.5 (13:50) -0.5 (-00:0) 4 14.44 (14:30) 7.22 (16:00) 0.2 0 0 0.2 0
28-01-2019 9.1 (15:30) 1.6 (00:00) 5.4 20 (15:30) 10.28 (15:20) 0 0 0 0 0
27-01-2019 7.7 (13:20) -0.1 (00:00) 3.8 16.39 (12:40) 9.17 (13:50) 0 0 0 0 0
26-01-2019 13.4 (15:20) -2.2 (-00:0) 5.6 6.94 (23:59) 3.61 (23:59) 0 0 0 0 0
25-01-2019 10 (16:20) 3.3 (00:00) 6.6 15 (07:30) 8.33 (07:10) 0.2 0.2 0 0 0
24-01-2019 6.7 (00:00) 2.4 (00:00) 4.5 21.39 (00:20) 11.11 (01:00) 1.2 0 1.2 0 0

Gráficas

Temp. máximas Temp. mínimas Temp. medias Precipitaciones Rachas de viento máximas Velocidades máximas media en intervalos de 10 minutos

Datos horarios

Fecha y hora oficial Temperatura (ºC) Velocidad del viento (km/h) Dirección del viento Racha (km/h) Dirección de racha Precipitación (mm) Presión (hPa) Tendencia (hPa) Humedad (%)
2019-02-22 23:00:00 3.7 7 Sur 14 Sudeste 0 -- -- 53
2019-02-22 22:00:00 4.5 0 Calma 6 Sudeste 0 -- -- 53
2019-02-22 21:00:00 5.8 0 Calma 8 Sur 0 -- -- 51
2019-02-22 20:00:00 8.1 5 Sur 9 Sur 0 -- -- 48
2019-02-22 19:00:00 10.9 3 Oeste 9 Oeste 0 -- -- 41
2019-02-22 18:00:00 15.3 2 Norte 14 Nordeste 0 -- -- 33
2019-02-22 17:00:00 17.1 8 Nordeste 18 Norte 0 -- -- 28
2019-02-22 16:00:00 17.5 7 Norte 15 Norte 0 -- -- 28
2019-02-22 15:00:00 16.9 9 Norte 19 Nordeste 0 -- -- 30
2019-02-22 14:00:00 16.2 10 Nordeste 20 Nordeste 0 -- -- 31
2019-02-22 13:00:00 15.9 6 Sudeste 15 Sudeste 0 -- -- 30
2019-02-22 12:00:00 14.1 5 Sudeste 12 Sudeste 0 -- -- 34
2019-02-22 11:00:00 9.8 9 Sudeste 21 Este 0 -- -- 48
2019-02-22 10:00:00 4.5 14 Este 20 Sudeste 0 -- -- 60
2019-02-22 09:00:00 0.5 14 Sudeste 31 Sudeste 0 -- -- 72
2019-02-22 08:00:00 -1.6 5 Nordeste 23 Este 0 -- -- 78
2019-02-22 07:00:00 -1.4 4 Sur 21 Sudeste 0 -- -- 77
2019-02-22 06:00:00 -0.9 4 Noroeste 18 Este 0 -- -- 76
2019-02-22 05:00:00 -1.1 0 Calma 19 Este 0 -- -- 75
2019-02-22 04:00:00 0.2 7 Sudeste 22 Sudeste 0 -- -- 72
2019-02-22 03:00:00 0.6 8 Sudeste 20 Sudeste 0 -- -- 71
2019-02-22 02:00:00 1 5 Sudeste 12 Este 0 -- -- 69
2019-02-22 01:00:00 1.9 4 Sudeste 13 Sudeste 0 -- -- 66
2019-02-22 00:00:00 2.8 4 Sudeste 12 Este 0 -- -- 62
2019-02-21 23:00:00 4.4 3 Sur 14 Sur 0 -- -- 58
2019-02-21 22:00:00 5.8 4 Sudeste 18 Sudoeste 0 -- -- 53
2019-02-21 21:00:00 8 12 Sudoeste 26 Sur 0 -- -- 47
2019-02-21 20:00:00 8.4 4 Sudeste 14 Sudoeste 0 -- -- 47
2019-02-21 19:00:00 9.8 3 Sur 16 Este 0 -- -- 38
2019-02-21 18:00:00 13.7 8 Este 21 Este 0 -- -- 27
2019-02-21 17:00:00 15.6 8 Este 19 Este 0 -- -- 25
2019-02-21 16:00:00 16 6 Sudeste 20 Sudeste 0 -- -- 27
2019-02-21 15:00:00 15.4 5 Nordeste 17 Este 0 -- -- 30
2019-02-21 14:00:00 15.2 7 Este 17 Este 0 -- -- 33
2019-02-21 13:00:00 13.8 6 Nordeste 18 Este 0 -- -- 38
2019-02-21 12:00:00 12 4 Sudeste 10 Sudeste 0 -- -- 46
2019-02-21 11:00:00 8 8 Este 20 Este 0 -- -- 60
2019-02-21 10:00:00 3.6 12 Sudeste 21 Sudeste 0 -- -- 71
2019-02-21 09:00:00 -0.5 10 Este 19 Sudeste 0 -- -- 85
2019-02-21 08:00:00 -2.3 5 Sudeste 15 Este 0 -- -- 88
2019-02-21 07:00:00 -1.6 8 Sudeste 21 Este 0 -- -- 85
2019-02-21 06:00:00 -1.1 12 Sudeste 22 Este 0 -- -- 84
2019-02-21 05:00:00 -1 5 Sudeste 15 Sudeste 0 -- -- 84
2019-02-21 04:00:00 -0.8 5 Sudeste 12 Sudeste 0 -- -- 82
2019-02-21 03:00:00 -0.2 5 Sudeste 12 Este 0 -- -- 81
2019-02-21 02:00:00 0.5 5 Sur 13 Sudeste 0 -- -- 79
2019-02-21 01:00:00 1.1 3 Sudeste 12 Sudeste 0 -- -- 76
2019-02-21 00:00:00 2.4 7 Sudeste 14 Sudeste 0 -- -- 72
2019-02-20 23:00:00 3.8 6 Sudeste 10 Sudeste 0 -- -- 68
2019-02-20 22:00:00 3.6 0 Calma 9 Noroeste 0 -- -- 64
2019-02-20 21:00:00 4.3 3 Norte 8 Norte 0 -- -- 59
2019-02-20 20:00:00 5.7 7 Oeste 10 Oeste 0 -- -- 52
2019-02-20 19:00:00 7.8 0 Calma 8 Sudeste 0 -- -- 46
2019-02-20 18:00:00 9.7 4 Noroeste 11 Norte 0 -- -- 42
2019-02-20 17:00:00 13 4 Nordeste 12 Nordeste 0 -- -- 34
2019-02-20 16:00:00 13.3 5 Norte 22 Nordeste 0 -- -- 34
2019-02-20 15:00:00 13.1 7 Nordeste 22 Norte 0 -- -- 37
2019-02-20 14:00:00 12.4 9 Norte 18 Norte 0 -- -- 41
2019-02-20 13:00:00 12 6 Nordeste 18 Este 0 -- -- 45
2019-02-20 12:00:00 11.2 5 Nordeste 13 Nordeste 0 -- -- 50
2019-02-20 11:00:00 7.3 9 Este 20 Sudeste 0 -- -- 58
2019-02-20 10:00:00 2.7 11 Sudeste 22 Sudeste 0 -- -- 69
2019-02-20 09:00:00 -1.2 7 Sudeste 19 Sudeste 0 -- -- 81
2019-02-20 08:00:00 -2.6 0 Calma 13 Sudeste 0 -- -- 84
2019-02-20 07:00:00 -2.5 2 Sudoeste 11 Sudeste 0 -- -- 84
2019-02-20 06:00:00 -2.3 2 Sudeste 8 Sudeste 0 -- -- 83
2019-02-20 05:00:00 -1.9 2 Sur 10 Sudeste 0 -- -- 81
2019-02-20 04:00:00 -1.1 5 Sur 13 Sudeste 0 -- -- 78
2019-02-20 03:00:00 -0.7 5 Sudeste 11 Sudeste 0 -- -- 75
2019-02-20 02:00:00 0.5 9 Sur 13 Sur 0 -- -- 71
2019-02-20 01:00:00 1.9 8 Este 12 Este 0 -- -- 67
2019-02-20 00:00:00 2.6 4 Nordeste 12 Sur 0 -- -- 64
2019-02-19 23:00:00 3.5 3 Nordeste 12 Sudoeste 0 -- -- 61
2019-02-19 22:00:00 4.7 7 Sudoeste 17 Sur 0 -- -- 57
2019-02-19 21:00:00 6 8 Sur 19 Sudoeste 0 -- -- 52
2019-02-19 20:00:00 6.9 9 Sudoeste 17 Sur 0 -- -- 48
2019-02-19 19:00:00 7.1 4 Oeste 8 Sudeste 0 -- -- 44
2019-02-19 18:00:00 10.9 7 Sudeste 23 Este 0 -- -- 34
2019-02-19 17:00:00 13.2 12 Este 26 Este 0 -- -- 29
2019-02-19 16:00:00 13.7 10 Este 23 Sudeste 0 -- -- 29
2019-02-19 15:00:00 13.4 9 Nordeste 21 Nordeste 0 -- -- 31
2019-02-19 14:00:00 12.5 10 Nordeste 23 Nordeste 0 -- -- 33
2019-02-19 13:00:00 11.3 8 Nordeste 19 Norte 0 -- -- 37
2019-02-19 12:00:00 9.1 6 Norte 14 Nordeste 0 -- -- 50
2019-02-19 11:00:00 6.5 7 Este 17 Este 0 -- -- 64
2019-02-19 10:00:00 2.2 12 Este 22 Este 0 -- -- 77
2019-02-19 09:00:00 -0.4 10 Sudeste 21 Sudeste 0 -- -- 87
2019-02-19 08:00:00 -1.9 6 Sudeste 19 Este 0 -- -- 88
2019-02-19 07:00:00 -1.7 11 Sudeste 16 Sudeste 0 -- -- 89
2019-02-19 06:00:00 -1.2 12 Sudeste 21 Este 0 -- -- 88
2019-02-19 05:00:00 -1 5 Este 22 Sudeste 0 -- -- 87
2019-02-19 04:00:00 -0.8 11 Sudeste 19 Sudeste 0 -- -- 88
2019-02-19 03:00:00 -0.6 6 Sur 19 Sudeste 0 -- -- 87
2019-02-19 02:00:00 -0.4 8 Sudeste 15 Sudeste 0 -- -- 88
2019-02-19 01:00:00 0.1 2 Este 8 Este 0 -- -- 85
2019-02-19 00:00:00 1.3 4 Nordeste 12 Sudoeste 0 -- -- 82
2019-02-18 23:00:00 2.4 0 Calma 8 Este 0 -- -- 80
2019-02-18 22:00:00 3.5 5 Sur 15 Sur 0 -- -- 75
2019-02-18 21:00:00 5.2 9 Sur 17 Sudoeste 0 -- -- 72
2019-02-18 20:00:00 6.1 10 Sudoeste 14 Sudoeste 0 -- -- 67
2019-02-18 19:00:00 8.1 6 Sur 19 Sudeste 0 -- -- 57
2019-02-18 18:00:00 10.1 12 Sudeste 25 Sudeste 0 -- -- 46
2019-02-18 17:00:00 11.9 15 Sudeste 30 Sudeste 0 -- -- 35
2019-02-18 16:00:00 12.7 21 Sudeste 34 Este 0 -- -- 32
2019-02-18 15:00:00 13.2 22 Sudeste 36 Sudeste 0 -- -- 30
2019-02-18 14:00:00 13.3 19 Sudeste 34 Sudeste 0 -- -- 24
2019-02-18 13:00:00 12.3 12 Sur 26 Sudeste 0 -- -- 34
2019-02-18 12:00:00 11.1 10 Sur 23 Sur 0 -- -- 38
2019-02-18 11:00:00 9.2 8 Sudeste 20 Sudeste 0 -- -- 45
2019-02-18 10:00:00 5.1 9 Sudeste 18 Sudeste 0 -- -- 58
2019-02-18 09:00:00 0.4 7 Sudeste 13 Este 0 -- -- 72
2019-02-18 08:00:00 -2.3 3 Oeste 12 Este 0 -- -- 80
2019-02-18 07:00:00 -1.4 6 Sudeste 14 Sudeste 0 -- -- 80
2019-02-18 06:00:00 -1.2 3 Sudeste 9 Sudeste 0 -- -- 83
2019-02-18 05:00:00 -1.3 3 Este 10 Sudeste 0 -- -- 87
2019-02-18 04:00:00 -3 3 Oeste 5 Noroeste 0 -- -- 88
2019-02-18 03:00:00 -2.4 0 Calma 6 Noroeste 0 -- -- 83
2019-02-18 02:00:00 -1.3 0 Calma 6 Norte 0 -- -- 76
2019-02-18 01:00:00 0.1 3 Noroeste 6 Norte 0 -- -- 70
2019-02-18 00:00:00 2.1 4 Sudeste 21 Sudoeste 0 -- -- 64
2019-02-17 23:00:00 4.4 11 Sudoeste 20 Sudoeste 0 -- -- 57
2019-02-17 22:00:00 5.2 9 Sudoeste 21 Sur 0 -- -- 55
2019-02-17 21:00:00 6.4 10 Sudoeste 21 Sudoeste 0 -- -- 55
2019-02-17 20:00:00 7.8 7 Sur 17 Sur 0 -- -- 49
2019-02-17 19:00:00 9.2 5 Sudeste 32 Sudeste 0 -- -- 41
2019-02-17 18:00:00 11 19 Sudeste 33 Sudeste 0 -- -- 36
2019-02-17 17:00:00 13.5 19 Sudeste 34 Sudeste 0 -- -- 29
2019-02-17 16:00:00 14.4 18 Sudeste 33 Sudeste 0 -- -- 27
2019-02-17 15:00:00 14.6 18 Sudeste 37 Sudeste 0 -- -- 25
2019-02-17 14:00:00 14.4 14 Sur 35 Sudeste 0 -- -- 24
2019-02-17 13:00:00 14.3 17 Sudeste 35 Sudeste 0 -- -- 25
2019-02-17 12:00:00 13.2 13 Sudeste 25 Sudeste 0 -- -- 26
2019-02-17 11:00:00 8.4 2 Nordeste 7 Este 0 -- -- 35
2019-02-17 10:00:00 3.7 3 Sudeste 14 Sudeste 0 -- -- 42
2019-02-17 09:00:00 -0.8 4 Sudeste 24 Sudeste 0 -- -- 50
2019-02-17 08:00:00 -2.3 7 Sudeste 15 Sur 0 -- -- 51
2019-02-17 07:00:00 -3.2 5 Sudeste 11 Sudeste 0 -- -- 54
2019-02-17 06:00:00 -3.1 0 Calma 13 Este 0 -- -- 54
2019-02-17 05:00:00 -2.3 5 Norte 19 Sudeste 0 -- -- 51
2019-02-17 04:00:00 -1.8 8 Sudeste 16 Sudeste 0 -- -- 50
2019-02-17 03:00:00 -1.6 5 Sudeste 15 Sudeste 0 -- -- 51
2019-02-17 02:00:00 -1.4 5 Sur 12 Sudeste 0 -- -- 52
2019-02-17 01:00:00 -0.8 6 Sudeste 14 Sudeste 0 -- -- 51
2019-02-17 00:00:00 -0.3 4 Sur 13 Sudeste 0 -- -- 50
2019-02-16 23:00:00 0.4 3 Sudoeste 15 Sudeste 0 -- -- 48
2019-02-16 22:00:00 1.5 6 Sudeste 16 Sudeste 0 -- -- 45
2019-02-16 21:00:00 3.4 8 Sudeste 20 Sur 0 -- -- 41
2019-02-16 20:00:00 5.7 8 Sudoeste 22 Sur 0 -- -- 33
2019-02-16 19:00:00 8.9 16 Sur 26 Sur 0 -- -- 32
2019-02-16 18:00:00 10.7 14 Sur 35 Sur 0 -- -- 27
2019-02-16 17:00:00 13 17 Sur 33 Sur 0 -- -- 21
2019-02-16 16:00:00 13.7 20 Sur 40 Sudeste 0 -- -- 20
2019-02-16 15:00:00 14.3 19 Sudeste 36 Sudeste 0 -- -- 21
2019-02-16 14:00:00 13.7 19 Sudeste 36 Sudeste 0 -- -- 22
2019-02-16 13:00:00 13.2 21 Sudeste 42 Sudeste 0 -- -- 23
2019-02-16 12:00:00 12 23 Sur 37 Sudeste 0 -- -- 23
2019-02-16 11:00:00 6.6 3 Norte 18 Este 0 -- -- 56
2019-02-16 10:00:00 2.4 12 Este 22 Este 0 -- -- 76
2019-02-16 09:00:00 -2 2 Oeste 13 Este 0 -- -- 90
2019-02-16 08:00:00 -2.9 3 Este 14 Este 0 -- -- 89
2019-02-16 07:00:00 -2 5 Sudeste 18 Sudeste 0 -- -- 89
2019-02-16 06:00:00 -2.1 2 Norte 11 Oeste 0 -- -- 90
2019-02-16 05:00:00 -1.4 3 Noroeste 19 Este 0 -- -- 87
2019-02-16 04:00:00 -0.7 5 Oeste 12 Sudeste 0 -- -- 88
2019-02-16 03:00:00 0 3 Sudoeste 21 Este 0 -- -- 85
2019-02-16 02:00:00 0.8 6 Sudeste 21 Sudeste 0 -- -- 82
2019-02-16 01:00:00 1.5 11 Sudeste 19 Sudeste 0 -- -- 81
2019-02-16 00:00:00 2.3 7 Sudeste 15 Sudeste 0 -- -- 79
2019-02-15 23:00:00 3.1 4 Este 8 Sudeste 0 -- -- 78
2019-02-15 22:00:00 4.3 4 Sur 6 Sur 0 -- -- 74
2019-02-15 21:00:00 4.8 0 Calma 10 Sudoeste 0 -- -- 68
2019-02-15 20:00:00 7.4 0 Calma 8 Oeste 0 -- -- 61
2019-02-15 19:00:00 9.4 4 Sur 7 Este 0 -- -- 52
2019-02-15 18:00:00 13.4 4 Sudeste 21 Este 0 -- -- 43
2019-02-15 17:00:00 16.3 9 Este 27 Nordeste 0 -- -- 35
2019-02-15 16:00:00 16 10 Nordeste 22 Nordeste 0 -- -- 32
2019-02-15 15:00:00 14.8 10 Norte 21 Norte 0 -- -- 36
2019-02-15 14:00:00 13.3 8 Norte 17 Norte 0 -- -- 41
2019-02-15 13:00:00 12 8 Norte 13 Norte 0 -- -- 36
2019-02-15 12:00:00 10 4 Norte 8 Este 0 -- -- 36
2019-02-15 11:00:00 6.4 7 Este 22 Este 0 -- -- 39
2019-02-15 10:00:00 1.7 11 Sudeste 22 Este 0 -- -- 51
2019-02-15 09:00:00 -3.4 4 Noroeste 17 Este 0 -- -- 73
2019-02-15 08:00:00 -4.4 3 Nordeste 12 Este 0 -- -- 75
2019-02-15 07:00:00 -3.7 5 Sudeste 15 Sudeste 0 -- -- 74
2019-02-15 06:00:00 -3.4 6 Sudeste 20 Este 0 -- -- 76
2019-02-15 05:00:00 -3.1 6 Sudeste 17 Sudeste 0 -- -- 78
2019-02-15 04:00:00 -2.8 2 Noroeste 10 Sur 0 -- -- 76
2019-02-15 03:00:00 -1.7 11 Sudeste 19 Sudeste 0 -- -- 72
2019-02-15 02:00:00 -0.9 10 Sudeste 22 Este 0 -- -- 71
2019-02-15 01:00:00 -0.7 9 Sudeste 20 Sudeste 0 -- -- 68
2019-02-15 00:00:00 -0.4 5 Sur 10 Sudeste 0 -- -- 67
2019-02-14 23:00:00 1.2 7 Sudeste 22 Sudeste 0 -- -- 61
2019-02-14 22:00:00 2.8 8 Sudeste 13 Sudoeste 0 -- -- 56
2019-02-14 21:00:00 4.4 4 Este 7 Este 0 -- -- 45
2019-02-14 20:00:00 5.4 4 Sur 10 Sur 0 -- -- 43
2019-02-14 19:00:00 7.2 4 Sur 13 Sudeste 0 -- -- 33
2019-02-14 18:00:00 10.4 6 Sudeste 27 Sudeste 0 -- -- 23
2019-02-14 17:00:00 13.3 18 Sudeste 31 Sudeste 0 -- -- 23
2019-02-14 16:00:00 14.2 18 Sudeste 35 Sudeste 0 -- -- 21
2019-02-14 15:00:00 14.2 21 Sudeste 33 Sudeste 0 -- -- 20
2019-02-14 14:00:00 14.2 19 Sudeste 30 Sudeste 0 -- -- 22
2019-02-14 13:00:00 13.5 19 Sudeste 30 Sudeste 0 -- -- 22
2019-02-14 12:00:00 9.3 6 Norte 13 Norte 0 -- -- 36
2019-02-14 11:00:00 6.4 2 Sudeste 15 Sudeste 0 -- -- 35
2019-02-14 10:00:00 1.3 6 Sudeste 15 Este 0 -- -- 47
2019-02-14 09:00:00 -2.9 3 Oeste 15 Este 0 -- -- 65
2019-02-14 08:00:00 -4.2 5 Sudeste 14 Sudeste 0 -- -- 70
2019-02-14 07:00:00 -4.3 3 Oeste 10 Oeste 0 -- -- 71
2019-02-14 06:00:00 -3.6 5 Sudeste 13 Sudeste 0 -- -- 72
2019-02-14 05:00:00 -3.2 3 Este 13 Sudeste 0 -- -- 70
2019-02-14 04:00:00 -2.8 3 Oeste 11 Norte 0 -- -- 74
2019-02-14 03:00:00 -1.8 0 Calma 19 Sudeste 0 -- -- 71
2019-02-14 02:00:00 -0.5 10 Sudeste 19 Sudeste 0 -- -- 68
2019-02-14 01:00:00 0.8 9 Sudeste 18 Sudeste 0 -- -- 64
2019-02-14 00:00:00 1.4 11 Sudeste 17 Este 0 -- -- 63
2019-02-13 23:00:00 2.6 7 Sudeste 17 Este 0 -- -- 59
2019-02-13 22:00:00 4.7 4 Sudeste 14 Sudoeste 0 -- -- 56
2019-02-13 21:00:00 5.6 4 Sur 12 Sudoeste 0 -- -- 52
2019-02-13 20:00:00 6.9 2 Sudoeste 9 Sudoeste 0 -- -- 45
2019-02-13 19:00:00 8 4 Sudoeste 12 Este 0 -- -- 41
2019-02-13 18:00:00 12.1 4 Sudeste 24 Sudeste 0 -- -- 30
2019-02-13 17:00:00 14.9 14 Sudeste 24 Sudeste 0 -- -- 23
2019-02-13 16:00:00 16 11 Sudeste 19 Sudeste 0 -- -- 26
2019-02-13 15:00:00 16 5 Sudeste 19 Sudeste 0 -- -- 23
2019-02-13 14:00:00 14.6 5 Oeste 15 Sudeste 0 -- -- 28
2019-02-13 13:00:00 12.1 6 Norte 15 Norte 0 -- -- 42
2019-02-13 12:00:00 10.8 4 Nordeste 15 Este 0 -- -- 47
2019-02-13 11:00:00 6.8 10 Este 22 Este 0 -- -- 55
2019-02-13 10:00:00 2.3 12 Este 24 Sudeste 0 -- -- 68
2019-02-13 09:00:00 -1.4 13 Este 23 Este 0 -- -- 81
2019-02-13 08:00:00 -3.1 4 Noroeste 15 Sudeste 0 -- -- 85
2019-02-13 07:00:00 -2.2 5 Sudeste 19 Sudeste 0 -- -- 81
2019-02-13 06:00:00 -1.5 10 Sudeste 24 Este 0 -- -- 79
2019-02-13 05:00:00 -1.5 10 Este 18 Este 0 -- -- 80
2019-02-13 04:00:00 -1.2 6 Sudeste 18 Sudeste 0 -- -- 77
2019-02-13 03:00:00 -0.9 3 Nordeste 14 Sudeste 0 -- -- 76
2019-02-13 02:00:00 -0.2 4 Este 17 Sudeste 0 -- -- 73
2019-02-13 01:00:00 0.6 8 Sudeste 24 Sudeste 0 -- -- 70
2019-02-13 00:00:00 1.2 8 Sudeste 13 Sudeste 0 -- -- 67
2019-02-12 23:00:00 2.9 8 Sudeste 17 Sudoeste 0 -- -- 61
2019-02-12 22:00:00 4.6 3 Sudoeste 14 Sur 0 -- -- 58
2019-02-12 21:00:00 5.8 8 Sur 17 Sur 0 -- -- 53
2019-02-12 20:00:00 7.1 9 Sudoeste 23 Sudoeste 0 -- -- 47
2019-02-12 19:00:00 8.5 11 Sudoeste 20 Sudoeste 0 -- -- 41
2019-02-12 18:00:00 10.3 8 Sudeste 20 Sudeste 0 -- -- 36
2019-02-12 17:00:00 13.2 9 Sudeste 21 Sudeste 0 -- -- 26
2019-02-12 16:00:00 13.4 8 Sur 20 Este 0 -- -- 27
2019-02-12 15:00:00 12.6 12 Este 21 Este 0 -- -- 37
2019-02-12 14:00:00 10 9 Norte 16 Norte 0 -- -- 49
2019-02-12 13:00:00 9.3 8 Nordeste 14 Nordeste 0 -- -- 52
2019-02-12 12:00:00 8 7 Este 17 Sudeste 0 -- -- 53
2019-02-12 11:00:00 5 8 Sudeste 18 Sudeste 0 -- -- 64
2019-02-12 10:00:00 1.2 9 Sudeste 18 Este 0 -- -- 79
2019-02-12 09:00:00 -2.5 6 Sudeste 13 Sudeste 0 -- -- 90
2019-02-12 08:00:00 -3.5 4 Sudeste 9 Sudeste 0 -- -- 91
2019-02-12 07:00:00 -3.1 4 Sur 7 Sur 0 -- -- 92
2019-02-12 06:00:00 -3 0 Calma 6 Noroeste 0 -- -- 92
2019-02-12 05:00:00 -2.2 4 Noroeste 9 Sur 0 -- -- 90
2019-02-12 04:00:00 -1.4 3 Sur 10 Noroeste 0 -- -- 89
2019-02-12 03:00:00 -0.6 0 Calma 7 Oeste 0 -- -- 88
2019-02-12 02:00:00 -0.4 3 Oeste 12 Noroeste 0 -- -- 89
2019-02-12 01:00:00 -0.3 3 Sur 9 Sudeste 0 -- -- 90
2019-02-12 00:00:00 -0.6 3 Oeste 10 Oeste 0 -- -- 89
2019-02-11 23:00:00 0.1 4 Oeste 10 Oeste 0 -- -- 85
2019-02-11 22:00:00 1.2 0 Calma 11 Sur 0 -- -- 81
2019-02-11 21:00:00 2.1 3 Norte 17 Oeste 0 -- -- 79
2019-02-11 20:00:00 2.3 8 Noroeste 13 Noroeste 0 -- -- 78
2019-02-11 19:00:00 3.5 4 Noroeste 18 Norte 0 -- -- 71
2019-02-11 18:00:00 5.6 13 Norte 29 Noroeste 0 -- -- 63
2019-02-11 17:00:00 7.1 13 Norte 34 Noroeste 0 -- -- 53
2019-02-11 16:00:00 7.7 18 Noroeste 34 Noroeste 0 -- -- 53
2019-02-11 15:00:00 7.8 18 Noroeste 32 Noroeste 0 -- -- 52
2019-02-11 14:00:00 8.3 16 Noroeste 36 Noroeste 0 -- -- 52
2019-02-11 13:00:00 7.4 21 Noroeste 34 Noroeste 0 -- -- 55
2019-02-11 12:00:00 6.2 17 Norte 39 Noroeste 0 -- -- 60
2019-02-11 11:00:00 5 23 Noroeste 37 Noroeste 0 -- -- 69
2019-02-11 10:00:00 3.8 5 Nordeste 9 Nordeste 0 -- -- 85
2019-02-11 09:00:00 2.2 0 Calma 11 Nordeste 0 -- -- 91
2019-02-11 08:00:00 1.9 5 Sudeste 18 Norte 0 -- -- 93
2019-02-11 07:00:00 2 8 Norte 18 Noroeste 0 -- -- 93
2019-02-11 06:00:00 2 13 Noroeste 25 Norte 0 -- -- 94
2019-02-11 05:00:00 2.5 19 Noroeste 28 Norte 0 -- -- 94
2019-02-11 04:00:00 3.3 17 Noroeste 32 Norte 0.6 -- -- 91
2019-02-11 03:00:00 6.5 10 Norte 18 Norte 0 -- -- 80
2019-02-11 02:00:00 7.7 5 Sudoeste 22 Sur 0 -- -- 74
2019-02-11 01:00:00 8.1 7 Sudoeste 19 Sudoeste 0 -- -- 75
2019-02-11 00:00:00 8.2 7 Sudoeste 17 Oeste 0 -- -- 79
2019-02-10 23:00:00 7.8 8 Sudoeste 18 Sudoeste 0 -- -- 79
2019-02-10 22:00:00 8.2 11 Oeste 26 Oeste 0 -- -- 77
2019-02-10 21:00:00 7.8 10 Sudoeste 24 Oeste 0 -- -- 78
2019-02-10 20:00:00 7.1 9 Sudoeste 26 Sudoeste 0 -- -- 80
2019-02-10 19:00:00 7.1 9 Oeste 28 Oeste 0 -- -- 78
2019-02-10 18:00:00 8.1 13 Oeste 24 Sudoeste 0 -- -- 74
2019-02-10 17:00:00 8.7 10 Sudoeste 30 Oeste 0 -- -- 71
2019-02-10 16:00:00 10.6 14 Sudoeste 33 Oeste 0 -- -- 62
2019-02-10 15:00:00 10.4 15 Sudoeste 34 Sudoeste 0 -- -- 60
2019-02-10 14:00:00 9.8 14 Oeste 31 Sudoeste 0 -- -- 61
2019-02-10 13:00:00 9.3 13 Noroeste 41 Oeste 0 -- -- 62
2019-02-10 12:00:00 7.9 19 Oeste 37 Oeste 0 -- -- 64
2019-02-10 11:00:00 6.2 9 Oeste 26 Oeste 0 -- -- 69
2019-02-10 10:00:00 5.2 13 Oeste 29 Oeste 0 -- -- 72
2019-02-10 09:00:00 5 12 Sudoeste 28 Sudoeste 0 -- -- 70
2019-02-10 08:00:00 5.3 4 Nordeste 22 Sur 0 -- -- 68
2019-02-10 07:00:00 6 5 Sudoeste 21 Sur 0 -- -- 65
2019-02-10 06:00:00 6.3 2 Nordeste 22 Sudoeste 0 -- -- 63
2019-02-10 05:00:00 6.8 0 Calma 22 Sur 0 -- -- 61
2019-02-10 04:00:00 7 4 Sur 18 Sudoeste 0 -- -- 54
2019-02-10 03:00:00 6.3 8 Sur 14 Sur -- -- -- 54
2019-02-10 02:00:00 4.1 3 Nordeste 10 Nordeste 0 -- -- 67
2019-02-10 01:00:00 2.7 0 Calma 5 Noroeste 0 -- -- 73
2019-02-10 00:00:00 3.1 0 Calma 4 Este 0 -- -- 70
2019-02-09 23:00:00 3.6 3 Noroeste 8 Sudoeste 0 -- -- 65
2019-02-09 22:00:00 5.4 2 Sudeste 14 Sudoeste 0 -- -- 57
2019-02-09 21:00:00 5.8 5 Sur 13 Sudoeste 0 -- -- 53
2019-02-09 20:00:00 7.1 9 Sudoeste 15 Sudoeste 0 -- -- 49
2019-02-09 19:00:00 8.5 8 Sudoeste 13 Sudoeste 0 -- -- 45
2019-02-09 18:00:00 11.6 3 Sudoeste 19 Sur 0 -- -- 35
2019-02-09 17:00:00 14.5 8 Sudoeste 22 Sur 0 -- -- 30
2019-02-09 16:00:00 15.3 10 Sur 23 Sur 0 -- -- 28
2019-02-09 15:00:00 13.6 4 Noroeste 15 Norte 0 -- -- 42
2019-02-09 14:00:00 11.8 4 Noroeste 13 Norte 0 -- -- 54
2019-02-09 13:00:00 9.7 7 Norte 16 Norte 0 -- -- 59
2019-02-09 12:00:00 8.5 7 Norte 14 Norte 0 -- -- 62
2019-02-09 11:00:00 6.2 0 Calma 10 Este 0 -- -- 68
2019-02-09 10:00:00 2.4 4 Sudeste 13 Sudeste 0 -- -- 79
2019-02-09 09:00:00 -1.9 5 Sudeste 10 Sudeste 0 -- -- 91
2019-02-09 08:00:00 -2.4 2 Sudeste 6 Este 0 -- -- 88
2019-02-09 07:00:00 -2 0 Calma 8 Sudeste 0 -- -- 88
2019-02-09 06:00:00 -1.5 0 Calma 7 Oeste 0 -- -- 86
2019-02-09 05:00:00 -0.8 3 Oeste 9 Oeste 0 -- -- 82
2019-02-09 04:00:00 -0.4 3 Sudeste 10 Sudeste 0 -- -- 80
2019-02-09 03:00:00 0.3 4 Oeste 9 Sur 0 -- -- 78
2019-02-09 02:00:00 1.6 5 Sudeste 10 Sudeste 0 -- -- 72
2019-02-09 01:00:00 2.3 3 Sudeste 12 Sudoeste 0 -- -- 66
2019-02-09 00:00:00 4.4 9 Sudoeste 17 Sudoeste 0 -- -- 58
2019-02-08 23:00:00 6.3 10 Sur 18 Sur 0 -- -- 51
2019-02-08 22:00:00 7.1 9 Sudoeste 30 Sur 0 -- -- 47
2019-02-08 21:00:00 7.8 7 Sudoeste 17 Sudoeste 0 -- -- 45
2019-02-08 20:00:00 8.7 6 Sudoeste 17 Sudoeste 0 -- -- 45
2019-02-08 19:00:00 10.1 0 Calma 17 Oeste 0 -- -- 39
2019-02-08 18:00:00 12.1 8 Oeste 21 Sudoeste 0 -- -- 35
2019-02-08 17:00:00 15.5 6 Sudoeste 19 Sur 0 -- -- 31
2019-02-08 16:00:00 15.8 10 Sudoeste 23 Oeste 0 -- -- 28
2019-02-08 15:00:00 16 10 Oeste 24 Sudoeste 0 -- -- 26
2019-02-08 14:00:00 15.6 14 Sur 28 Sudoeste 0 -- -- 30
2019-02-08 13:00:00 15.3 10 Sur 27 Sur 0 -- -- 30
2019-02-08 12:00:00 13.4 17 Sur 32 Sur 0 -- -- 35
2019-02-08 11:00:00 10 16 Sur 26 Sur 0 -- -- 50
2019-02-08 10:00:00 5.3 12 Sudeste 25 Este 0 -- -- 68
2019-02-08 09:00:00 0.2 14 Este 28 Sudeste 0 -- -- 83
2019-02-08 08:00:00 -1.7 15 Sudeste 23 Sudeste 0 -- -- 87
2019-02-08 07:00:00 -1.6 10 Sudeste 20 Sudeste 0 -- -- 88
2019-02-08 06:00:00 -1.3 17 Sudeste 27 Este 0 -- -- 89
2019-02-08 05:00:00 -1.3 9 Sur 20 Sudeste 0 -- -- 88
2019-02-08 04:00:00 -0.7 14 Sudeste 25 Sudeste 0 -- -- 88
2019-02-08 03:00:00 -0.7 13 Sudeste 21 Sudeste 0 -- -- 88
2019-02-08 02:00:00 -0.2 13 Sudeste 20 Sudeste 0 -- -- 86
2019-02-08 01:00:00 0.2 4 Sudeste 14 Sudeste 0 -- -- 85
2019-02-08 00:00:00 0.7 10 Sudeste 15 Sudeste 0 -- -- 85
2019-02-07 23:00:00 1.3 2 Sur 5 Nordeste 0 -- -- 84
2019-02-07 22:00:00 1.8 3 Sudeste 8 Sudeste 0 -- -- 82
2019-02-07 21:00:00 3.4 7 Sur 10 Sudeste 0 -- -- 78
2019-02-07 20:00:00 4.6 6 Oeste 9 Oeste 0 -- -- 74
2019-02-07 19:00:00 7.5 3 Noroeste 13 Nordeste 0 -- -- 64
2019-02-07 18:00:00 10.5 9 Este 22 Este 0 -- -- 54
2019-02-07 17:00:00 12.8 12 Nordeste 20 Nordeste 0 -- -- 42
2019-02-07 16:00:00 12.7 9 Nordeste 22 Sudeste 0 -- -- 38
2019-02-07 15:00:00 13.2 8 Este 16 Este 0 -- -- 39
2019-02-07 14:00:00 11.8 5 Nordeste 26 Nordeste 0 -- -- 46
2019-02-07 13:00:00 12.6 9 Nordeste 17 Nordeste 0 -- -- 46
2019-02-07 12:00:00 11 4 Este 13 Este 0 -- -- 50
2019-02-07 11:00:00 7.5 4 Sudeste 9 Sudeste 0 -- -- 69
2019-02-07 10:00:00 3.2 5 Sudeste 10 Este 0 -- -- 82
2019-02-07 09:00:00 -0.3 0 Calma 7 Este 0 -- -- 92
2019-02-07 08:00:00 -0.6 3 Oeste 8 Oeste 0 -- -- 92
2019-02-07 07:00:00 0 0 Calma 6 Oeste 0 -- -- 88
2019-02-07 06:00:00 0.2 0 Calma 8 Oeste 0 -- -- 89
2019-02-07 05:00:00 0.2 2 Sudeste 6 Sudeste 0 -- -- 87
2019-02-07 04:00:00 0.7 0 Calma 6 Sudoeste 0 -- -- 87
2019-02-07 03:00:00 1.6 6 Sur 20 Sudeste 0 -- -- 83
2019-02-07 02:00:00 2.9 8 Sudeste 18 Sudoeste 0 -- -- 79
2019-02-07 01:00:00 3.3 7 Sudeste 20 Este 0 -- -- 78
2019-02-07 00:00:00 3.4 14 Sudeste 22 Sudeste 0 -- -- 77
2019-02-06 23:00:00 4.3 9 Sudeste 15 Sudeste 0 -- -- 75
2019-02-06 22:00:00 5.4 2 Oeste 11 Este 0 -- -- 73
2019-02-06 21:00:00 5.7 2 Nordeste 6 Oeste 0 -- -- 73
2019-02-06 20:00:00 6.6 4 Sur 13 Sur 0 -- -- 71
2019-02-06 19:00:00 8.6 2 Sudoeste 8 Sudoeste 0 -- -- 65
2019-02-06 18:00:00 11.3 5 Sudoeste 12 Este 0 -- -- 57
2019-02-06 17:00:00 15 6 Este 14 Nordeste 0 -- -- 47
2019-02-06 16:00:00 14.9 7 Norte 18 Nordeste 0 -- -- 46
2019-02-06 15:00:00 14.4 5 Norte 15 Nordeste 0 -- -- 44
2019-02-06 14:00:00 13.7 7 Norte 12 Norte 0 -- -- 48
2019-02-06 13:00:00 13.5 4 Este 8 Nordeste 0 -- -- 47
2019-02-06 12:00:00 10.1 3 Este 6 Este 0 -- -- 55
2019-02-06 11:00:00 6.5 5 Este 21 Este 0 -- -- 72
2019-02-06 10:00:00 2.5 11 Sudeste 22 Este 0 -- -- 85
2019-02-06 09:00:00 -1.1 4 Oeste 11 Este 0 -- -- 95
2019-02-06 08:00:00 -1.7 0 Calma 9 Sudeste 0 -- -- 93
2019-02-06 07:00:00 -0.9 3 Sur 23 Este 0 -- -- 91
2019-02-06 06:00:00 -0.2 14 Este 22 Sudeste 0 -- -- 92
2019-02-06 05:00:00 -0.3 6 Sudeste 15 Este 0 -- -- 92
2019-02-06 04:00:00 -0.3 3 Noroeste 8 Norte 0 -- -- 94
2019-02-06 03:00:00 0.2 4 Sudeste 17 Sudeste 0 -- -- 91
2019-02-06 02:00:00 0.5 4 Sudeste 9 Sudeste 0 -- -- 91
2019-02-06 01:00:00 1.1 2 Sudoeste 10 Sudeste 0 -- -- 90
2019-02-06 00:00:00 1.8 3 Sur 9 Sur 0 -- -- 88
2019-02-05 23:00:00 2.3 2 Sur 7 Oeste 0 -- -- 86
2019-02-05 22:00:00 3.9 0 Calma 8 Sur 0 -- -- 80
2019-02-05 21:00:00 5.3 5 Sudeste 15 Sudeste 0 -- -- 75
2019-02-05 20:00:00 6.4 8 Sur 14 Sudeste 0 -- -- 72
2019-02-05 19:00:00 8.4 3 Sur 17 Noroeste 0 -- -- 65
2019-02-05 18:00:00 10.5 8 Noroeste 24 Oeste 0 -- -- 59
2019-02-05 17:00:00 12.1 12 Noroeste 30 Noroeste 0 -- -- 54
2019-02-05 16:00:00 12.3 15 Noroeste 29 Noroeste 0 -- -- 53
2019-02-05 15:00:00 12 14 Noroeste 26 Noroeste 0 -- -- 53
2019-02-05 14:00:00 12 13 Noroeste 30 Noroeste 0 -- -- 55
2019-02-05 13:00:00 10.8 19 Noroeste 33 Noroeste 0 -- -- 58
2019-02-05 12:00:00 10 22 Noroeste 35 Norte 0 -- -- 62
2019-02-05 11:00:00 7.6 7 Norte 18 Nordeste 0 -- -- 66
2019-02-05 10:00:00 7.6 10 Norte 26 Norte 0 -- -- 73
2019-02-05 09:00:00 1.6 5 Sur 8 Sur 0 -- -- 97
2019-02-05 08:00:00 -2.1 3 Sudoeste 9 Noroeste 0 -- -- 91
2019-02-05 07:00:00 -1.7 3 Sudoeste 10 Oeste 0 -- -- 89
2019-02-05 06:00:00 -1.6 4 Oeste 12 Norte 0 -- -- 88
2019-02-05 05:00:00 -1.1 3 Oeste 9 Noroeste 0 -- -- 84
2019-02-05 04:00:00 -0.3 3 Sur 9 Sudeste 0 -- -- 80
2019-02-05 03:00:00 0.4 0 Calma 7 Sur 0 -- -- 77
2019-02-05 02:00:00 0.8 4 Sur 8 Sur 0 -- -- 74
2019-02-05 01:00:00 0.8 4 Oeste 10 Sur 0 -- -- 73
2019-02-05 00:00:00 0.4 2 Sudeste 5 Sudeste 0 -- -- 76
2019-02-04 23:00:00 0.6 2 Oeste 4 Noroeste 0 -- -- 71
2019-02-04 22:00:00 1.6 0 Calma 7 Noroeste 0 -- -- 67
2019-02-04 21:00:00 2.7 3 Norte 7 Oeste 0 -- -- 62
2019-02-04 20:00:00 4.1 3 Sur 14 Oeste 0 -- -- 55
2019-02-04 19:00:00 6.3 5 Noroeste 11 Noroeste 0 -- -- 48
2019-02-04 18:00:00 8.6 5 Sur 27 Noroeste 0 -- -- 42
2019-02-04 17:00:00 9.9 16 Noroeste 30 Oeste 0 -- -- 38
2019-02-04 16:00:00 10.1 16 Noroeste 28 Noroeste 0 -- -- 35
2019-02-04 15:00:00 10.2 17 Noroeste 26 Noroeste 0 -- -- 32
2019-02-04 14:00:00 9.6 14 Norte 26 Norte 0 -- -- 33
2019-02-04 13:00:00 9 17 Noroeste 31 Noroeste 0 -- -- 33
2019-02-04 12:00:00 8.2 16 Norte 27 Norte 0 -- -- 30
2019-02-04 11:00:00 6.5 8 Nordeste 15 Nordeste 0 -- -- 27
2019-02-04 10:00:00 3.5 3 Este 16 Sudeste 0 -- -- 41
2019-02-04 09:00:00 0.4 5 Este 19 Sudeste 0 -- -- 46
2019-02-04 08:00:00 0.3 4 Sur 22 Este 0 -- -- 43
2019-02-04 07:00:00 0.1 9 Sudeste 23 Noroeste 0 -- -- 50
2019-02-04 06:00:00 -0.9 7 Este 18 Sudeste 0 -- -- 55
2019-02-04 05:00:00 -0.9 8 Sur 20 Sudeste 0 -- -- 60
2019-02-04 04:00:00 -2 7 Este 28 Sudoeste 0 -- -- 69
2019-02-04 03:00:00 -1.7 12 Sur 29 Oeste 0 -- -- 77
2019-02-04 02:00:00 -1.9 9 Noroeste 31 Oeste 0 -- -- 77
2019-02-04 01:00:00 -1.8 22 Noroeste 45 Noroeste 0 -- -- 78
2019-02-04 00:00:00 -1.7 16 Noroeste 35 Noroeste 0 -- -- 77
2019-02-03 23:00:00 -1.6 12 Noroeste 35 Oeste 0 -- -- 77
2019-02-03 22:00:00 -1.1 19 Noroeste 35 Noroeste 0 -- -- 75
2019-02-03 21:00:00 -0.6 18 Noroeste 38 Noroeste 0 -- -- 74
2019-02-03 20:00:00 -0.3 21 Noroeste 44 Noroeste 0 -- -- 72
2019-02-03 19:00:00 0.1 27 Noroeste 46 Noroeste 0 -- -- 67
2019-02-03 18:00:00 1 13 Norte 47 Noroeste 0 -- -- 65
2019-02-03 17:00:00 2.1 27 Noroeste 52 Noroeste 0 -- -- 59
2019-02-03 16:00:00 2.2 32 Noroeste 67 Noroeste 0 -- -- 57
2019-02-03 15:00:00 1.4 31 Noroeste 56 Oeste 0 -- -- 59
2019-02-03 14:00:00 1.6 32 Noroeste 62 Norte 0 -- -- 58
2019-02-03 13:00:00 0.1 28 Noroeste 51 Noroeste 0 -- -- 68
2019-02-03 12:00:00 -0.1 34 Noroeste 51 Norte 0 -- -- 66
2019-02-03 11:00:00 -0.9 26 Noroeste 48 Noroeste 0 -- -- 70
2019-02-03 10:00:00 -1.6 26 Noroeste 40 Noroeste 0 -- -- 69
2019-02-03 09:00:00 -2.6 19 Noroeste 41 Noroeste 0 -- -- 73
2019-02-03 08:00:00 -2.3 26 Noroeste 45 Oeste 0 -- -- 70
2019-02-03 07:00:00 -2.7 23 Noroeste 42 Noroeste 0 -- -- 74
2019-02-03 06:00:00 -2.5 22 Noroeste 45 Noroeste 0 -- -- 74
2019-02-03 05:00:00 -2.3 23 Noroeste 47 Noroeste 0 -- -- 75
2019-02-03 04:00:00 -2.1 24 Noroeste 49 Noroeste 0 -- -- 70
2019-02-03 03:00:00 -1.5 28 Noroeste 55 Noroeste 0 -- -- 68
2019-02-03 02:00:00 -1.3 25 Noroeste 41 Norte 0 -- -- 74
2019-02-03 01:00:00 -1 17 Noroeste 35 Noroeste 0 -- -- 71
2019-02-03 00:00:00 -1.3 17 Noroeste 43 Noroeste 0 -- -- 71
2019-02-02 23:00:00 -1.1 24 Noroeste 41 Oeste 0 -- -- 71
2019-02-02 22:00:00 -1.1 18 Noroeste 43 Noroeste 0 -- -- 67
2019-02-02 21:00:00 -1.1 15 Noroeste 35 Noroeste 0 -- -- 67
2019-02-02 20:00:00 -1.1 20 Noroeste 36 Noroeste 0 -- -- 65
2019-02-02 19:00:00 -0.6 15 Noroeste 44 Noroeste 0 -- -- 64
2019-02-02 18:00:00 0.2 16 Noroeste 57 Noroeste 0 -- -- 58
2019-02-02 17:00:00 1.6 29 Noroeste 53 Noroeste 0 -- -- 54
2019-02-02 16:00:00 2.4 21 Noroeste 48 Oeste 0 -- -- 59
2019-02-02 15:00:00 1.9 24 Noroeste 56 Noroeste 0 -- -- 64
2019-02-02 14:00:00 1.9 9 Noroeste 59 Noroeste 0 -- -- 63
2019-02-02 13:00:00 2.3 23 Noroeste 59 Noroeste 0 -- -- 64
2019-02-02 12:00:00 1.8 26 Noroeste 59 Oeste 0 -- -- 66
2019-02-02 11:00:00 1.8 26 Noroeste 63 Noroeste 0 -- -- 68
2019-02-02 10:00:00 1.3 32 Noroeste 67 Noroeste 0 -- -- 69
2019-02-02 09:00:00 0.8 23 Noroeste 45 Noroeste 0 -- -- 70
2019-02-02 08:00:00 0.5 16 Oeste 45 Oeste 0 -- -- 73
2019-02-02 07:00:00 0.7 23 Oeste 49 Oeste 0 -- -- 70
2019-02-02 06:00:00 0.6 18 Oeste 40 Oeste 0 -- -- 73
2019-02-02 05:00:00 0.6 18 Oeste 43 Oeste 0.2 -- -- 78
2019-02-02 04:00:00 0.6 12 Oeste 39 Sudoeste 0 -- -- 83
2019-02-02 03:00:00 0.7 16 Sudoeste 36 Sudoeste 0.4 -- -- 83
2019-02-02 02:00:00 1.3 14 Oeste 32 Sudoeste 0 -- -- 79
2019-02-02 01:00:00 1.2 10 Sudoeste 42 Oeste 0 -- -- 80
2019-02-02 00:00:00 1.2 14 Oeste 29 Sudoeste 0 -- -- 80
2019-02-01 23:00:00 1.2 16 Sudoeste 36 Oeste 0 -- -- 78
2019-02-01 22:00:00 0.9 12 Sudoeste 37 Oeste 0.2 -- -- 79
2019-02-01 21:00:00 1.4 12 Sudoeste 35 Sudoeste 0 -- -- 78
2019-02-01 20:00:00 1.7 10 Sur 41 Sudoeste 0.2 -- -- 83
2019-02-01 19:00:00 -- -- -- -- -- -- -- -- --
2019-02-01 18:00:00 2.8 10 Sudeste 22 Sudeste 0.4 -- -- 88
2019-02-01 17:00:00 4 16 Sudeste 39 Sudoeste 0 -- -- 74
2019-02-01 16:00:00 4.2 18 Sur 46 Sudoeste 0.2 -- -- 80
2019-02-01 15:00:00 6.1 23 Sudoeste 49 Sur 0 -- -- 62
2019-02-01 14:00:00 6.1 17 Sudoeste 46 Sudoeste 0.2 -- -- 69
2019-02-01 13:00:00 4.3 13 Oeste 34 Sudoeste 0.2 -- -- 83
2019-02-01 12:00:00 4.5 14 Sur 32 Sudoeste 0.2 -- -- 85
2019-02-01 11:00:00 6.2 13 Sudoeste 28 Oeste 0 -- -- 72
2019-02-01 10:00:00 6.2 16 Sur 35 Sur 0 -- -- 73
2019-02-01 09:00:00 5 5 Sudoeste 30 Sudoeste 0 -- -- 75
2019-02-01 08:00:00 5.8 10 Sudoeste 33 Oeste 0 -- -- 78
2019-02-01 07:00:00 6.7 5 Sudoeste 34 Sudoeste 0.8 -- -- 82
2019-02-01 06:00:00 8 18 Sur 34 Sur 0.2 -- -- 83
2019-02-01 05:00:00 8 16 Sur 35 Sudoeste 0.6 -- -- 82
2019-02-01 04:00:00 7.8 13 Sur 43 Sudoeste 0 -- -- 82
2019-02-01 03:00:00 8.1 18 Sur 53 Sudoeste 0 -- -- 79
2019-02-01 02:00:00 8.2 13 Sur 42 Sur 0 -- -- 77
2019-02-01 01:00:00 8.8 16 Sur 38 Sudoeste 0 -- -- 75
2019-02-01 00:00:00 9.1 11 Sur 25 Sur 0 -- -- 76
2019-01-31 23:00:00 9.4 10 Sudoeste 36 Sudoeste 0 -- -- 76
2019-01-31 22:00:00 9.3 15 Sudoeste 36 Sudoeste 0 -- -- 75
2019-01-31 21:00:00 9.1 9 Sur 34 Sur 0 -- -- 79
2019-01-31 20:00:00 8.9 20 Sur 42 Sudoeste 0 -- -- 79
2019-01-31 19:00:00 8.5 12 Sur 28 Sudoeste 0.2 -- -- 82
2019-01-31 18:00:00 9 8 Sudoeste 34 Sudoeste 0 -- -- 81
2019-01-31 17:00:00 10.1 11 Sudoeste 39 Sudoeste 0 -- -- 71
2019-01-31 16:00:00 10.3 14 Sudoeste 36 Oeste 0 -- -- 70
2019-01-31 15:00:00 10 17 Sudoeste 33 Sudoeste 0 -- -- 70
2019-01-31 14:00:00 10.2 15 Sudoeste 45 Oeste 0 -- -- 70
2019-01-31 13:00:00 11.3 18 Sudoeste 48 Sudoeste 0 -- -- 63
2019-01-31 12:00:00 10.8 13 Sudoeste 42 Sudoeste 0 -- -- 63
2019-01-31 11:00:00 9.7 16 Oeste 38 Oeste 0 -- -- 67
2019-01-31 10:00:00 9.3 13 Sudoeste 30 Sudoeste 0 -- -- 73
2019-01-31 09:00:00 8.2 13 Oeste 33 Sudoeste 0 -- -- 75
2019-01-31 08:00:00 7.9 10 Sudoeste 32 Sur 0 -- -- 80
2019-01-31 07:00:00 7.8 13 Sudoeste 46 Sudoeste 0 -- -- 77
2019-01-31 06:00:00 7.2 10 Sur 33 Sudoeste 0 -- -- 78
2019-01-31 05:00:00 6.7 10 Sur 38 Sur 0 -- -- 77
2019-01-31 04:00:00 6.5 16 Sur 37 Sur 0 -- -- 76
2019-01-31 03:00:00 5.6 17 Sur 32 Sur 0 -- -- 78
2019-01-31 02:00:00 5.1 14 Sur 30 Sur 0 -- -- 78
2019-01-31 01:00:00 4.2 12 Sur 33 Sudeste 0 -- -- 79
2019-01-31 00:00:00 3.6 21 Sur 40 Sur 0 -- -- 79
2019-01-30 23:00:00 3.2 20 Sur 34 Sur 0 -- -- 76
2019-01-30 22:00:00 2.9 18 Sur 30 Sur 0 -- -- 71
2019-01-30 21:00:00 3.2 18 Sur 32 Sur 0 -- -- 63
2019-01-30 20:00:00 3.6 9 Sudoeste 27 Sur 0 -- -- 58
2019-01-30 19:00:00 3.8 13 Sur 28 Sur 0 -- -- 56
2019-01-30 18:00:00 4.5 7 Oeste 30 Sudoeste 0 -- -- 55
2019-01-30 17:00:00 6.3 8 Oeste 22 Oeste 0 -- -- 50
2019-01-30 16:00:00 6.8 9 Sudoeste 28 Sudoeste 0 -- -- 47
2019-01-30 15:00:00 7.1 14 Sudoeste 30 Sudoeste 0 -- -- 44
2019-01-30 14:00:00 7.2 13 Sudoeste 31 Sudoeste 0 -- -- 46
2019-01-30 13:00:00 6.9 11 Sudoeste 26 Oeste 0 -- -- 48
2019-01-30 12:00:00 6.1 12 Oeste 27 Oeste 0 -- -- 47
2019-01-30 11:00:00 4.8 17 Oeste 29 Noroeste 0 -- -- 51
2019-01-30 10:00:00 3.4 12 Oeste 28 Oeste 0 -- -- 60
2019-01-30 09:00:00 1.7 8 Oeste 26 Oeste 0 -- -- 70
2019-01-30 08:00:00 1.4 8 Oeste 22 Oeste 0 -- -- 72
2019-01-30 07:00:00 1.1 6 Oeste 11 Oeste 0 -- -- 72
2019-01-30 06:00:00 1.9 4 Sur 11 Noroeste 0 -- -- 68
2019-01-30 05:00:00 2.2 6 Sudoeste 13 Oeste 0 -- -- 71
2019-01-30 04:00:00 2.7 3 Sur 15 Oeste 0 -- -- 65
2019-01-30 03:00:00 2.8 8 Oeste 25 Noroeste 0 -- -- 67
2019-01-30 02:00:00 2.8 4 Este 22 Noroeste 0 -- -- 63
2019-01-30 01:00:00 3.2 11 Noroeste 29 Oeste 0 -- -- 61
2019-01-30 00:00:00 3.5 9 Noroeste 32 Noroeste 0 -- -- 63
2019-01-29 23:00:00 4.2 10 Noroeste 36 Oeste 0 -- -- 65
2019-01-29 22:00:00 4.5 12 Oeste 36 Noroeste 0 -- -- 67
2019-01-29 21:00:00 5 10 Noroeste 36 Noroeste 0 -- -- 71
2019-01-29 20:00:00 4.2 9 Sudoeste 22 Oeste -- -- -- 84
2019-01-29 19:00:00 4.4 9 Sudoeste 26 Oeste 0 -- -- 84
2019-01-29 18:00:00 4.8 15 Sudoeste 32 Sudoeste 0.2 -- -- 82
2019-01-29 17:00:00 5.7 10 Sudoeste 42 Oeste 0 -- -- 79
2019-01-29 16:00:00 6.7 26 Sudoeste 48 Sudoeste 0 -- -- 68
2019-01-29 15:00:00 7.8 19 Sudoeste 52 Oeste 0 -- -- 61
2019-01-29 14:00:00 8.3 15 Sudoeste 37 Sudoeste 0 -- -- 58
2019-01-29 13:00:00 7.6 14 Oeste 42 Oeste 0 -- -- 58
2019-01-29 12:00:00 6.9 5 Oeste 23 Noroeste 0 -- -- 60
2019-01-29 11:00:00 4.7 2 Noroeste 26 Oeste 0 -- -- 61
2019-01-29 10:00:00 1.7 3 Sudeste 9 Norte 0 -- -- 70
2019-01-29 09:00:00 0.3 5 Sur 13 Sudoeste 0 -- -- 73
2019-01-29 08:00:00 0.3 8 Sudoeste 19 Noroeste 0 -- -- 72
2019-01-29 07:00:00 1.6 4 Oeste 25 Noroeste 0 -- -- 65
2019-01-29 06:00:00 0.3 6 Sur 12 Nordeste 0 -- -- 73
2019-01-29 05:00:00 0.7 2 Sudeste 19 Noroeste 0 -- -- 71
2019-01-29 04:00:00 1.1 10 Noroeste 20 Oeste 0 -- -- 72
2019-01-29 03:00:00 2.1 10 Noroeste 29 Oeste 0 -- -- 68
2019-01-29 02:00:00 1.7 3 Noroeste 16 Oeste 0 -- -- 69
2019-01-29 01:00:00 2.6 3 Norte 32 Oeste 0 -- -- 67
2019-01-29 00:00:00 2.2 5 Noroeste 25 Oeste 0 -- -- 69
2019-01-28 23:00:00 3.3 7 Sur 20 Oeste 0 -- -- 69
2019-01-28 22:00:00 4.3 10 Norte 40 Oeste 0 -- -- 67
2019-01-28 21:00:00 4.2 8 Norte 26 Norte 0 -- -- 69
2019-01-28 20:00:00 5 14 Noroeste 42 Noroeste 0 -- -- 68
2019-01-28 19:00:00 5.2 21 Noroeste 40 Noroeste 0 -- -- 76
2019-01-28 18:00:00 5.9 19 Noroeste 44 Noroeste 0 -- -- 72
2019-01-28 17:00:00 7.3 24 Noroeste 59 Oeste 0 -- -- 57
2019-01-28 16:00:00 8.3 28 Noroeste 72 Noroeste 0 -- -- 51
2019-01-28 15:00:00 8.4 30 Noroeste 56 Noroeste 0 -- -- 51
2019-01-28 14:00:00 7.9 27 Noroeste 55 Oeste 0 -- -- 54
2019-01-28 13:00:00 7.4 20 Oeste 46 Noroeste 0 -- -- 55
2019-01-28 12:00:00 6.8 23 Noroeste 60 Oeste 0 -- -- 55
2019-01-28 11:00:00 5.7 24 Oeste 61 Oeste 0 -- -- 57
2019-01-28 10:00:00 4.3 33 Oeste 63 Oeste 0 -- -- 62
2019-01-28 09:00:00 3 9 Noroeste 28 Oeste 0 -- -- 66
2019-01-28 08:00:00 2.4 6 Noroeste 32 Oeste 0 -- -- 65
2019-01-28 07:00:00 2.1 12 Oeste 26 Oeste 0 -- -- 61
2019-01-28 06:00:00 2.5 8 Noroeste 32 Noroeste 0 -- -- 61
2019-01-28 05:00:00 2.2 19 Noroeste 53 Noroeste 0 -- -- 61
2019-01-28 04:00:00 1.7 20 Noroeste 47 Noroeste 0 -- -- 63
2019-01-28 03:00:00 1.7 26 Noroeste 53 Oeste 0 -- -- 66
2019-01-28 02:00:00 1.7 15 Noroeste 34 Noroeste 0 -- -- 63
2019-01-28 01:00:00 1.7 10 Noroeste 37 Oeste 0 -- -- 63
2019-01-28 00:00:00 2.3 9 Noroeste 30 Noroeste 0 -- -- 67
2019-01-27 23:00:00 2.1 6 Noroeste 23 Oeste 0 -- -- 68
2019-01-27 22:00:00 2.5 4 Sudeste 26 Oeste 0 -- -- 67
2019-01-27 21:00:00 3.5 14 Noroeste 27 Oeste 0 -- -- 63
2019-01-27 20:00:00 3.2 5 Noroeste 29 Noroeste 0 -- -- 62
2019-01-27 19:00:00 4.2 13 Noroeste 41 Noroeste 0 -- -- 57
2019-01-27 18:00:00 5.2 18 Noroeste 49 Oeste 0 -- -- 53
2019-01-27 17:00:00 6.2 22 Noroeste 46 Noroeste 0 -- -- 46
2019-01-27 16:00:00 6.2 21 Noroeste 43 Oeste 0 -- -- 49
2019-01-27 15:00:00 6.8 18 Noroeste 50 Oeste 0 -- -- 48
2019-01-27 14:00:00 7.6 26 Noroeste 54 Noroeste 0 -- -- 47
2019-01-27 13:00:00 7.4 26 Noroeste 59 Noroeste 0 -- -- 50
2019-01-27 12:00:00 6 24 Noroeste 48 Noroeste 0 -- -- 56
2019-01-27 11:00:00 6 22 Noroeste 37 Noroeste 0 -- -- 59
2019-01-27 10:00:00 4.4 6 Nordeste 28 Noroeste 0 -- -- 66
2019-01-27 09:00:00 0.1 3 Sudeste 12 Sur 0 -- -- 74
2019-01-27 08:00:00 0.6 7 Sudeste 10 Sur 0 -- -- 72
2019-01-27 07:00:00 1.6 6 Sudeste 16 Sudoeste 0 -- -- 70
2019-01-27 06:00:00 3.4 8 Sudoeste 16 Sudoeste 0 -- -- 68
2019-01-27 05:00:00 4 0 Calma 21 Oeste 0 -- -- 63
2019-01-27 04:00:00 5.8 15 Sudoeste 23 Sudoeste 0 -- -- 56
2019-01-27 03:00:00 6 15 Sudoeste 26 Sudoeste 0 -- -- 53
2019-01-27 02:00:00 6.5 15 Sudoeste 28 Sudoeste 0 -- -- 51
2019-01-27 01:00:00 6.4 11 Sudoeste 27 Sudoeste 0 -- -- 48
2019-01-27 00:00:00 6.3 13 Sudoeste 25 Oeste 0 -- -- 48
2019-01-26 23:00:00 2.9 6 Norte 16 Sudeste 0 -- -- 53
2019-01-26 22:00:00 2.8 3 Sur 15 Este 0 -- -- 54
2019-01-26 21:00:00 4.1 7 Sudeste 12 Sudeste 0 -- -- 53
2019-01-26 20:00:00 3.8 5 Sur 7 Sudeste 0 -- -- 66
2019-01-26 19:00:00 5.8 2 Sudeste 7 Sudeste 0 -- -- 68
2019-01-26 18:00:00 7.9 6 Oeste 14 Norte 0 -- -- 66
2019-01-26 17:00:00 12.6 5 Noroeste 16 Norte 0 -- -- 52
2019-01-26 16:00:00 12.9 10 Norte 17 Norte 0 -- -- 51
2019-01-26 15:00:00 13.2 10 Norte 17 Norte 0 -- -- 49
2019-01-26 14:00:00 11.6 9 Noroeste 16 Norte 0 -- -- 55
2019-01-26 13:00:00 9.9 8 Norte 15 Norte 0 -- -- 56
2019-01-26 12:00:00 8.4 3 Nordeste 13 Sudeste 0 -- -- 59
2019-01-26 11:00:00 5.6 6 Sudeste 17 Este 0 -- -- 70
2019-01-26 10:00:00 2.1 9 Este 18 Sudeste 0 -- -- 82
2019-01-26 09:00:00 -1.2 9 Este 15 Este 0 -- -- 96
2019-01-26 08:00:00 -2.2 4 Sudeste 6 Sudeste 0 -- -- 94
2019-01-26 07:00:00 -1.5 3 Oeste 6 Sur 0 -- -- 92
2019-01-26 06:00:00 -0.5 4 Oeste 8 Noroeste 0 -- -- 90
2019-01-26 05:00:00 1.3 5 Oeste 11 Oeste 0 -- -- 86
2019-01-26 04:00:00 3.3 0 Calma 9 Sur 0 -- -- 83
2019-01-26 03:00:00 3.4 3 Sur 17 Noroeste 0 -- -- 84
2019-01-26 02:00:00 3.7 12 Noroeste 22 Noroeste 0 -- -- 83
2019-01-26 01:00:00 4 5 Norte 18 Nordeste 0 -- -- 82
2019-01-26 00:00:00 3.7 8 Este 16 Este 0 -- -- 84
2019-01-25 23:00:00 3.7 4 Sur 30 Norte 0 -- -- 82
2019-01-25 22:00:00 4.3 16 Noroeste 36 Noroeste 0 -- -- 81
2019-01-25 21:00:00 4.8 17 Noroeste 44 Norte 0 -- -- 79
2019-01-25 20:00:00 5.7 19 Noroeste 39 Norte 0 -- -- 75
2019-01-25 19:00:00 6.8 17 Noroeste 28 Norte 0 -- -- 71
2019-01-25 18:00:00 7.7 24 Noroeste 48 Norte 0 -- -- 66
2019-01-25 17:00:00 9.1 26 Noroeste 46 Noroeste 0 -- -- 61
2019-01-25 16:00:00 9.9 24 Noroeste 42 Noroeste 0 -- -- 62
2019-01-25 15:00:00 8.9 27 Noroeste 43 Norte 0 -- -- 66
2019-01-25 14:00:00 8.4 14 Norte 41 Oeste 0 -- -- 71
2019-01-25 13:00:00 7.9 19 Noroeste 44 Noroeste 0 -- -- 74
2019-01-25 12:00:00 7.2 28 Noroeste 46 Noroeste 0 -- -- 75
2019-01-25 11:00:00 6.4 24 Noroeste 40 Norte 0 -- -- 79
2019-01-25 10:00:00 5.9 24 Noroeste 47 Noroeste 0 -- -- 80
2019-01-25 09:00:00 5.3 27 Noroeste 54 Noroeste 0 -- -- 81
2019-01-25 08:00:00 5.5 26 Noroeste 54 Noroeste 0 -- -- 81
2019-01-25 07:00:00 5.3 29 Noroeste 48 Noroeste 0 -- -- 85
2019-01-25 06:00:00 4.9 18 Noroeste 36 Norte 0 -- -- 89
2019-01-25 05:00:00 4.6 12 Noroeste 29 Noroeste 0 -- -- 90
2019-01-25 04:00:00 4.6 20 Noroeste 34 Norte 0 -- -- 88
2019-01-25 03:00:00 4.5 16 Noroeste 36 Noroeste 0 -- -- 88
2019-01-25 02:00:00 4.4 16 Noroeste 37 Noroeste 0.2 -- -- 89
2019-01-25 01:00:00 3.9 17 Noroeste 42 Noroeste 0 -- -- 89
2019-01-25 00:00:00 3.9 14 Noroeste 25 Noroeste 0 -- -- 91
2019-01-24 23:00:00 4 16 Noroeste 25 Noroeste 0 -- -- 91
2019-01-24 22:00:00 3.9 11 Norte 24 Norte 0 -- -- 87
2019-01-24 21:00:00 4.3 14 Noroeste 33 Norte 0 -- -- 83
2019-01-24 20:00:00 4 22 Noroeste 46 Norte 0 -- -- 84
2019-01-24 19:00:00 4.1 21 Noroeste 50 Noroeste 0 -- -- 81
2019-01-24 18:00:00 4.7 23 Noroeste 54 Norte 0 -- -- 77
2019-01-24 17:00:00 5.1 28 Noroeste 54 Noroeste 0 -- -- 75
2019-01-24 16:00:00 4.9 27 Noroeste 54 Noroeste 0 -- -- 75
2019-01-24 15:00:00 5.1 28 Noroeste 61 Noroeste 0 -- -- 74
2019-01-24 14:00:00 4.6 32 Noroeste 56 Norte 0 -- -- 75
2019-01-24 13:00:00 4.3 31 Noroeste 48 Noroeste 0 -- -- 77
2019-01-24 12:00:00 3.5 21 Noroeste 47 Noroeste 0 -- -- 82
2019-01-24 11:00:00 2.7 16 Noroeste 41 Norte 0.2 -- -- 89
2019-01-24 10:00:00 2.8 28 Noroeste 48 Noroeste 0 -- -- 87
2019-01-24 09:00:00 3.1 28 Noroeste 55 Noroeste 0.6 -- -- 87
2019-01-24 08:00:00 3.4 21 Noroeste 44 Noroeste 0.4 -- -- 88
2019-01-24 07:00:00 4.7 24 Noroeste 61 Noroeste 0 -- -- 76
2019-01-24 06:00:00 5 26 Noroeste 48 Noroeste 0 -- -- 74
2019-01-24 05:00:00 5 25 Noroeste 63 Noroeste 0 -- -- 74
2019-01-24 04:00:00 4.9 26 Noroeste 56 Oeste 0 -- -- 72
2019-01-24 03:00:00 5 28 Noroeste 54 Noroeste 0 -- -- 71
2019-01-24 02:00:00 5.4 30 Noroeste 63 Noroeste 0 -- -- 68
2019-01-24 01:00:00 6.3 40 Noroeste 77 Noroeste 0 -- -- 67
2019-01-24 00:00:00 6.7 35 Noroeste 66 Oeste 0 -- -- 67